EGPO - Stornoway
Distance from station: E 5mi, 14km
Updated: 10/21/2017 2:20pm
Clear
Clear
 Wind from NW
Wind: NW 2 mph , 4 km/h
Temperature: 46°F , 8°C
Dew Point: 45°F , 7°C
Humidity: 93%
Barometer: 29.32 inHg , 993 hPa
Clouds: Clear
Visibility: 6 miles , 10 km
2017/10/21 21:20 EGPO 212120Z AUTO 32002KT 9999 NCD 08/07 Q0993